createdAt,value
2019-03-28T00:03:52.438Z,2.49
2019-03-28T00:09:47.428Z,2.79
2019-03-28T00:15:42.444Z,2.71
2019-03-28T00:21:37.387Z,2.44
2019-03-28T00:27:32.384Z,2.54
2019-03-28T00:33:27.405Z,2.19
2019-03-28T00:39:22.400Z,2.35
2019-03-28T00:45:17.418Z,2.45
2019-03-28T00:51:12.400Z,2.46
2019-03-28T00:57:07.405Z,2.51
2019-03-28T01:03:02.431Z,2.7
2019-03-28T01:08:57.413Z,2.49
2019-03-28T01:14:52.443Z,2.68
2019-03-28T01:20:47.413Z,2.88
2019-03-28T01:26:42.409Z,2.33
2019-03-28T01:32:37.437Z,2.8
2019-03-28T01:38:32.502Z,2.63
2019-03-28T01:44:27.448Z,2.87
2019-03-28T01:50:22.436Z,3.08
2019-03-28T01:56:17.463Z,3.1
2019-03-28T02:02:12.454Z,3.1
2019-03-28T02:08:07.496Z,3.06
2019-03-28T02:14:02.468Z,3.14
2019-03-28T02:19:57.456Z,2.5
2019-03-28T02:25:52.467Z,3.7
2019-03-28T02:31:47.474Z,3.3
2019-03-28T02:37:42.480Z,3.7
2019-03-28T02:43:37.478Z,3.2
2019-03-28T02:49:32.505Z,3.45
2019-03-28T02:55:27.462Z,3.55
2019-03-28T03:01:22.521Z,3.17
2019-03-28T03:07:17.504Z,3.36
2019-03-28T03:13:12.477Z,3.32
2019-03-28T03:19:07.475Z,3.5
2019-03-28T03:25:02.529Z,3.07
2019-03-28T03:30:57.540Z,3.19
2019-03-28T03:36:52.511Z,3.31
2019-03-28T03:42:47.525Z,3.62
2019-03-28T03:48:42.495Z,3.43
2019-03-28T03:54:37.504Z,3.61
2019-03-28T04:00:32.532Z,3.47
2019-03-28T04:06:27.539Z,3.8
2019-03-28T04:12:22.582Z,4.07
2019-03-28T04:18:20.078Z,3.7
2019-03-28T04:24:12.564Z,3.83
2019-03-28T04:30:07.548Z,3.63
2019-03-28T04:36:02.572Z,4.01
2019-03-28T04:41:57.608Z,3.65
2019-03-28T04:47:52.592Z,3.76
2019-03-28T04:53:47.586Z,4
2019-03-28T04:59:42.571Z,3.45
2019-03-28T05:05:37.620Z,4.02
2019-03-28T05:11:33.318Z,4.2
2019-03-28T05:17:27.592Z,4.17
2019-03-28T05:23:22.582Z,4.22
2019-03-28T05:29:17.634Z,3.76
2019-03-28T05:35:12.647Z,4.07
2019-03-28T05:41:07.613Z,3.84
2019-03-28T05:47:03.402Z,4.95
2019-03-28T05:52:57.584Z,4.7
2019-03-28T05:58:52.572Z,3.67
2019-03-28T06:04:47.596Z,4.67
2019-03-28T06:10:42.571Z,3.76
2019-03-28T06:16:37.604Z,3.41
2019-03-28T06:22:32.588Z,3.58
2019-03-28T06:28:27.605Z,3.51
2019-03-28T06:34:22.603Z,3.64
2019-03-28T06:40:17.618Z,4.19
2019-03-28T06:46:12.608Z,4.07
2019-03-28T06:52:07.596Z,4.75
2019-03-28T06:58:02.614Z,4.2
2019-03-28T07:03:57.588Z,4.07
2019-03-28T07:09:52.616Z,4.49
2019-03-28T07:15:47.618Z,4.5
2019-03-28T07:21:42.672Z,4.67
2019-03-28T07:27:37.637Z,4.27
2019-03-28T07:33:32.625Z,5.13
2019-03-28T07:39:27.655Z,4.27
2019-03-28T07:45:22.656Z,5.23
2019-03-28T07:51:17.674Z,4.49
2019-03-28T07:57:12.673Z,4.88
2019-03-28T08:03:07.631Z,4.63
2019-03-28T08:09:02.710Z,4.85
2019-03-28T08:14:57.659Z,4.67
2019-03-28T08:20:52.665Z,4.35
2019-03-28T08:26:47.702Z,5.67
2019-03-28T08:44:16.774Z,4.23
2019-03-28T08:50:11.763Z,4.72
2019-03-28T08:56:06.795Z,5.33
2019-03-28T09:02:04.859Z,4.63
2019-03-28T09:07:56.810Z,4.11
2019-03-28T09:13:51.793Z,3.83
2019-03-28T09:19:46.780Z,4.83
2019-03-28T09:25:41.792Z,4.32
2019-03-28T09:31:36.838Z,4.54
2019-03-28T09:37:31.872Z,4.1
2019-03-28T09:43:26.904Z,4.31
2019-03-28T09:49:21.814Z,3.85
2019-03-28T09:55:18.821Z,3.93
2019-03-28T10:01:11.842Z,3.89
2019-03-28T10:07:06.880Z,3.8
2019-03-28T10:13:01.831Z,3.57
2019-03-28T10:18:56.836Z,4.55
2019-03-28T10:24:51.892Z,4.25
2019-03-28T10:30:46.900Z,3.91
2019-03-28T10:36:41.890Z,4.94
2019-03-28T10:42:36.968Z,4.83
2019-03-28T10:48:31.874Z,7.33
2019-03-28T10:54:26.887Z,6.21
2019-03-28T11:00:24.185Z,6.16
2019-03-28T11:06:16.905Z,4.81
2019-03-28T11:12:11.960Z,4.88
2019-03-28T11:18:06.945Z,4.99
2019-03-28T11:24:01.873Z,5.57
2019-03-28T11:29:56.905Z,4.68
2019-03-28T11:35:51.951Z,4.75
2019-03-28T11:41:46.989Z,5.35
2019-03-28T11:47:41.916Z,5.46
2019-03-28T11:53:36.907Z,4.94
2019-03-28T11:59:31.936Z,5.76
2019-03-28T12:05:26.920Z,4.83
2019-03-28T12:11:21.966Z,5.87
2019-03-28T12:17:16.960Z,5.89
2019-03-28T12:23:11.949Z,5.83
2019-03-28T12:29:06.980Z,5.47
2019-03-28T12:35:01.997Z,5.61
2019-03-28T12:40:56.986Z,6.5
2019-03-28T12:46:51.936Z,5.68
2019-03-28T12:52:46.988Z,5.62
2019-03-28T12:58:41.949Z,5.96
2019-03-28T13:04:37.063Z,5.51
2019-03-28T13:10:32.015Z,5.65
2019-03-28T13:16:26.981Z,5.24
2019-03-28T13:22:21.994Z,5.3
2019-03-28T13:28:17.003Z,5.96
2019-03-28T13:34:12.039Z,5.02
2019-03-28T13:40:07.015Z,4.85
2019-03-28T13:46:02.048Z,4.71
2019-03-28T13:51:57.034Z,4.95
2019-03-28T13:57:52.431Z,4.89
2019-03-28T14:03:47.046Z,4.27
2019-03-28T14:09:42.070Z,4.89
2019-03-28T14:15:36.989Z,4.8
2019-03-28T14:21:32.045Z,5.39
2019-03-28T14:27:27.007Z,5.4
2019-03-28T14:33:22.042Z,5.37
2019-03-28T14:39:17.141Z,5.48
2019-03-28T14:45:12.081Z,5.12
2019-03-28T14:51:07.035Z,5.57
2019-03-28T14:57:02.046Z,4.96
2019-03-28T15:02:57.089Z,4.85
2019-03-28T15:08:52.114Z,4.22
2019-03-28T15:14:47.072Z,5.17
2019-03-28T15:20:42.040Z,4.91
2019-03-28T15:26:37.159Z,4.47
2019-03-28T15:32:32.086Z,4.73
2019-03-28T15:38:27.072Z,4.96
2019-03-28T15:44:22.046Z,4.73
2019-03-28T15:50:17.068Z,4.74
2019-03-28T15:56:12.099Z,4.78
2019-03-28T16:02:07.115Z,4.05
2019-03-28T16:08:02.121Z,4.81
2019-03-28T16:13:57.070Z,4.33
2019-03-28T16:19:52.156Z,4.97
2019-03-28T16:25:47.100Z,4.67
2019-03-28T16:31:42.085Z,4.58
2019-03-28T16:37:37.150Z,4.45
2019-03-28T16:43:32.111Z,4.36
2019-03-28T16:49:27.111Z,4.43
2019-03-28T16:55:26.421Z,4.07
2019-03-28T17:01:17.118Z,3.95
2019-03-28T17:07:12.180Z,4.41
2019-03-28T17:13:07.652Z,4.14
2019-03-28T17:19:02.140Z,5.26
2019-03-28T17:24:57.151Z,4.59
2019-03-28T17:30:53.153Z,4.26
2019-03-28T17:36:47.124Z,4.48
2019-03-28T17:42:42.130Z,4.46
2019-03-28T17:48:37.163Z,4.33
2019-03-28T17:54:32.169Z,3.52
2019-03-28T18:00:28.028Z,5.11
2019-03-28T18:06:22.203Z,4.75
2019-03-28T18:12:17.192Z,4.16
2019-03-28T18:18:12.230Z,4.72
2019-03-28T18:24:07.140Z,8.66
2019-03-28T18:30:05.107Z,4.3
2019-03-28T18:35:57.201Z,4.63
2019-03-28T18:41:52.198Z,4.6
2019-03-28T18:47:47.229Z,5.36
2019-03-28T18:53:42.224Z,4.47
2019-03-28T18:59:37.261Z,4.66
2019-03-28T19:05:32.245Z,5.16
2019-03-28T19:11:27.267Z,5.25
2019-03-28T19:17:22.212Z,4.39
2019-03-28T19:23:17.320Z,4.83
2019-03-28T19:29:12.222Z,4.24
2019-03-28T19:35:07.302Z,3.96
2019-03-28T19:41:02.325Z,4.21
2019-03-28T19:46:57.278Z,3.78
2019-03-28T19:52:52.267Z,5.77
2019-03-28T19:58:47.193Z,4.43
2019-03-28T20:04:42.225Z,4.04
2019-03-28T20:10:37.221Z,5.1
2019-03-28T20:16:32.272Z,4.2
2019-03-28T20:22:27.256Z,3.82
2019-03-28T20:28:22.307Z,4.43
2019-03-28T20:34:17.328Z,3.88
2019-03-28T20:40:12.303Z,4.35
2019-03-28T20:46:07.305Z,3.76
2019-03-28T20:52:02.285Z,4.19
2019-03-28T20:57:57.327Z,5.98
2019-03-28T21:03:52.291Z,4.94
2019-03-28T21:09:47.238Z,4.08
2019-03-28T21:15:42.252Z,4.31
2019-03-28T21:21:37.314Z,4.14
2019-03-28T21:27:33.041Z,4.03
2019-03-28T21:33:27.295Z,4.3
2019-03-28T21:39:22.272Z,3.9
2019-03-28T21:45:17.270Z,4.17
2019-03-28T21:51:12.298Z,3.68
2019-03-28T21:57:07.343Z,4.42
2019-03-28T22:03:02.330Z,4.27
2019-03-28T22:08:57.306Z,4.42
2019-03-28T22:14:52.311Z,3.96
2019-03-28T22:20:47.330Z,3.86
2019-03-28T22:26:43.323Z,4.32
2019-03-28T22:32:37.323Z,4.26
2019-03-28T22:38:32.314Z,4.48
2019-03-28T22:44:27.302Z,4.03
2019-03-28T22:50:22.390Z,4.41
2019-03-28T22:56:17.312Z,4.21
2019-03-28T23:02:12.400Z,4.49
2019-03-28T23:08:07.323Z,4.26
2019-03-28T23:14:02.327Z,4.29
2019-03-28T23:19:57.889Z,4.4
2019-03-28T23:25:52.338Z,3.91
2019-03-28T23:31:50.477Z,4.02
2019-03-28T23:37:42.308Z,4.58
2019-03-28T23:43:37.367Z,4.91
2019-03-28T23:49:32.330Z,3.7
2019-03-28T23:55:27.354Z,4.19
